createdAt,value
2017-12-26T00:00:56.421Z,95.25
2017-12-26T00:01:56.457Z,95.23
2017-12-26T00:02:58.084Z,94.91
2017-12-26T00:03:56.414Z,94.79
2017-12-26T00:04:56.391Z,94.53
2017-12-26T00:05:56.499Z,94.9
2017-12-26T00:06:56.509Z,94.86
2017-12-26T00:07:56.650Z,95
2017-12-26T00:08:56.413Z,94.9
2017-12-26T00:09:56.420Z,94.54
2017-12-26T00:10:56.518Z,94.63
2017-12-26T00:11:56.434Z,94.44
2017-12-26T00:12:56.469Z,94.83
2017-12-26T00:13:56.706Z,94.84
2017-12-26T00:14:56.408Z,95
2017-12-26T00:15:56.431Z,95.11
2017-12-26T00:16:56.480Z,94.94
2017-12-26T00:17:56.610Z,95.26
2017-12-26T00:18:56.569Z,95.14
2017-12-26T00:19:56.498Z,94.9
2017-12-26T00:20:56.449Z,95.12
2017-12-26T00:21:56.506Z,95.15
2017-12-26T00:22:56.470Z,94.83
2017-12-26T00:23:56.413Z,94.88
2017-12-26T00:24:56.454Z,95.01
2017-12-26T00:25:56.723Z,95.02
2017-12-26T00:26:56.457Z,94.8
2017-12-26T00:27:56.441Z,94.85
2017-12-26T00:28:56.504Z,94.64
2017-12-26T00:29:56.481Z,94.32
2017-12-26T00:30:56.465Z,94.38
2017-12-26T00:31:56.469Z,94.34
2017-12-26T00:32:56.440Z,93.83
2017-12-26T00:33:56.467Z,94.27
2017-12-26T00:34:56.394Z,94.34
2017-12-26T00:35:56.423Z,94.5
2017-12-26T00:36:56.496Z,93.86
2017-12-26T00:37:56.470Z,94.42
2017-12-26T00:38:56.553Z,94.74
2017-12-26T00:39:56.434Z,95.12
2017-12-26T00:40:56.423Z,95.2
2017-12-26T00:41:56.695Z,94.86
2017-12-26T00:42:56.516Z,95.11
2017-12-26T00:43:56.412Z,95.05
2017-12-26T00:44:56.436Z,94.96
2017-12-26T00:45:56.488Z,94.92
2017-12-26T00:46:56.481Z,95.09
2017-12-26T00:47:56.511Z,95.44
2017-12-26T00:48:56.462Z,95.74
2017-12-26T00:49:56.481Z,95.73
2017-12-26T00:50:56.458Z,95.29
2017-12-26T00:51:56.522Z,95.79
2017-12-26T00:52:56.486Z,95.61
2017-12-26T00:53:56.534Z,95.37
2017-12-26T00:54:56.446Z,95.42
2017-12-26T00:55:56.463Z,95.53
2017-12-26T00:56:56.499Z,95.15
2017-12-26T00:57:56.423Z,95.33
2017-12-26T00:58:56.720Z,95.45
2017-12-26T00:59:56.431Z,94.84
2017-12-26T01:00:56.465Z,95.21
2017-12-26T01:01:56.474Z,95.09
2017-12-26T01:02:56.479Z,94.93
2017-12-26T01:03:56.502Z,94.87
2017-12-26T01:04:56.470Z,95.11
2017-12-26T01:05:56.462Z,95.43
2017-12-26T01:06:56.429Z,95.06
2017-12-26T01:07:56.473Z,95.05
2017-12-26T01:08:56.449Z,95.01
2017-12-26T01:09:56.620Z,95.12
2017-12-26T01:10:56.662Z,95.08
2017-12-26T01:11:56.531Z,95.32
2017-12-26T01:12:56.521Z,95.56
2017-12-26T01:13:56.452Z,95.53
2017-12-26T01:14:56.585Z,95.03
2017-12-26T01:15:56.609Z,95.02
2017-12-26T01:16:56.550Z,95.18
2017-12-26T01:17:56.437Z,94.92
2017-12-26T01:18:56.497Z,95.31
2017-12-26T01:19:56.500Z,95.15
2017-12-26T01:20:56.469Z,95.09
2017-12-26T01:21:56.480Z,95.07
2017-12-26T01:22:56.514Z,94.94
2017-12-26T01:23:56.525Z,95.09
2017-12-26T01:24:56.430Z,95.28
2017-12-26T01:25:56.509Z,95.42
2017-12-26T01:26:56.476Z,95.03
2017-12-26T01:27:56.535Z,94.99
2017-12-26T01:28:56.502Z,95.14
2017-12-26T01:29:56.518Z,95.12
2017-12-26T01:30:56.476Z,95.47
2017-12-26T01:31:56.484Z,95.3
2017-12-26T01:32:56.465Z,95.23
2017-12-26T01:33:56.519Z,95.25
2017-12-26T01:34:56.732Z,95.31
2017-12-26T01:35:56.525Z,94.75
2017-12-26T01:36:56.503Z,95.23
2017-12-26T01:37:56.462Z,94.79
2017-12-26T01:38:56.521Z,95.12
2017-12-26T01:39:56.497Z,94.67
2017-12-26T01:40:56.561Z,94.8
2017-12-26T01:41:56.486Z,94.37
2017-12-26T01:42:56.505Z,94.05
2017-12-26T01:43:56.702Z,94.95
2017-12-26T01:44:56.554Z,95.03
2017-12-26T01:45:56.513Z,95.2
2017-12-26T01:46:56.550Z,95.32
2017-12-26T01:47:56.569Z,94.63
2017-12-26T01:48:56.484Z,94.88
2017-12-26T01:49:56.535Z,95.14
2017-12-26T01:50:56.474Z,94.8
2017-12-26T01:51:56.529Z,94.95
2017-12-26T01:52:56.896Z,94.35
2017-12-26T01:53:56.542Z,94.94
2017-12-26T01:54:56.540Z,94.39
2017-12-26T01:55:56.511Z,94.76
2017-12-26T01:56:56.491Z,94.52
2017-12-26T01:57:56.562Z,95.15
2017-12-26T01:58:56.513Z,95.04
2017-12-26T01:59:56.523Z,95.17
2017-12-26T02:00:56.569Z,95.19
2017-12-26T02:01:56.519Z,94.92
2017-12-26T02:02:56.509Z,95.13
2017-12-26T02:03:56.552Z,94.76
2017-12-26T02:04:56.881Z,94.54
2017-12-26T02:05:56.526Z,94.74
2017-12-26T02:06:56.471Z,94.31
2017-12-26T02:07:56.505Z,94.29
2017-12-26T02:08:56.534Z,94.63
2017-12-26T02:09:56.552Z,94.36
2017-12-26T02:10:56.805Z,94.34
2017-12-26T02:11:56.541Z,94.44
2017-12-26T02:12:56.510Z,94.67
2017-12-26T02:13:56.504Z,94.49
2017-12-26T02:14:56.576Z,94.72
2017-12-26T02:15:56.603Z,94.73
2017-12-26T02:16:56.579Z,94.94
2017-12-26T02:17:56.512Z,94.78
2017-12-26T02:18:56.475Z,94.55
2017-12-26T02:19:56.590Z,95.02
2017-12-26T02:20:56.585Z,95.02
2017-12-26T02:21:56.592Z,95.01
2017-12-26T02:22:56.699Z,94.88
2017-12-26T02:23:56.560Z,94.89
2017-12-26T02:24:56.508Z,95.19
2017-12-26T02:25:56.512Z,95.06
2017-12-26T02:26:56.572Z,95.29
2017-12-26T02:27:56.587Z,95.13
2017-12-26T02:28:56.840Z,95.03
2017-12-26T02:29:56.596Z,95.03
2017-12-26T02:30:56.621Z,94.99
2017-12-26T02:31:56.577Z,94.78
2017-12-26T02:32:56.514Z,94.82
2017-12-26T02:33:56.590Z,95.39
2017-12-26T02:34:56.615Z,95.25
2017-12-26T02:35:56.567Z,95
2017-12-26T02:36:56.537Z,94.97
2017-12-26T02:37:56.548Z,94.93
2017-12-26T02:38:56.537Z,95.04
2017-12-26T02:39:56.543Z,95.08
2017-12-26T02:40:56.643Z,94.84
2017-12-26T02:41:56.545Z,95.38
2017-12-26T02:42:56.523Z,94.91
2017-12-26T02:43:56.570Z,95.28
2017-12-26T02:44:56.588Z,95.02
2017-12-26T02:45:56.704Z,95.65
2017-12-26T02:46:56.778Z,95.02
2017-12-26T02:47:56.615Z,95.74
2017-12-26T02:48:56.569Z,95.17
2017-12-26T02:49:56.587Z,95.27
2017-12-26T02:50:56.631Z,95.29
2017-12-26T02:51:56.571Z,95.46
2017-12-26T02:52:56.607Z,95.25
2017-12-26T02:53:56.624Z,95.38
2017-12-26T02:54:56.568Z,95.26
2017-12-26T02:55:56.653Z,95.36
2017-12-26T02:56:56.564Z,94.99
2017-12-26T02:57:56.586Z,94.69
2017-12-26T02:58:56.580Z,94.81
2017-12-26T02:59:56.562Z,94.87
2017-12-26T03:00:56.573Z,94.84
2017-12-26T03:01:56.585Z,94.89
2017-12-26T03:02:56.592Z,94.82
2017-12-26T03:03:56.578Z,94.09
2017-12-26T03:04:56.609Z,94.29
2017-12-26T03:05:56.604Z,94.62
2017-12-26T03:06:56.563Z,93.98
2017-12-26T03:07:56.605Z,94.13
2017-12-26T03:08:56.549Z,94.56
2017-12-26T03:09:56.597Z,94.2
2017-12-26T03:10:56.771Z,95.02
2017-12-26T03:11:56.584Z,94.08
2017-12-26T03:12:56.604Z,94.72
2017-12-26T03:13:56.598Z,94.05
2017-12-26T03:14:56.568Z,93.85
2017-12-26T03:15:56.669Z,93.47
2017-12-26T03:16:56.660Z,94.63
2017-12-26T03:17:56.601Z,94.39
2017-12-26T03:18:56.619Z,94.04
2017-12-26T03:19:56.610Z,94.48
2017-12-26T03:20:56.653Z,94.63
2017-12-26T03:21:56.651Z,94.52
2017-12-26T03:22:56.568Z,94.92
2017-12-26T03:23:56.562Z,94.59
2017-12-26T03:24:56.594Z,94.9
2017-12-26T03:25:56.626Z,94.76
2017-12-26T03:28:56.864Z,94.6
2017-12-26T03:29:56.581Z,94.47
2017-12-26T03:30:56.609Z,94.34
2017-12-26T03:31:57.103Z,94.46
2017-12-26T03:32:56.661Z,95.06
2017-12-26T03:33:56.632Z,94.7
2017-12-26T03:34:56.628Z,94.95
2017-12-26T03:35:56.666Z,94.83
2017-12-26T03:36:56.675Z,94.62
2017-12-26T03:37:56.589Z,94.93
2017-12-26T03:38:56.697Z,94.81
2017-12-26T03:39:56.634Z,94.91
2017-12-26T03:40:56.599Z,94.64
2017-12-26T03:41:56.587Z,94.82
2017-12-26T03:42:56.589Z,94.87
2017-12-26T03:43:56.666Z,95.01
2017-12-26T03:44:56.635Z,94.63
2017-12-26T03:45:56.701Z,94.42
2017-12-26T03:46:56.984Z,94.46
2017-12-26T03:47:56.657Z,94.73
2017-12-26T03:48:56.648Z,94.73
2017-12-26T03:49:56.650Z,94.68
2017-12-26T03:50:56.655Z,94.74
2017-12-26T03:51:56.666Z,94.6
2017-12-26T03:52:56.856Z,94.46
2017-12-26T03:53:56.687Z,94.1
2017-12-26T03:54:56.682Z,94.15
2017-12-26T03:55:56.699Z,94.3
2017-12-26T03:56:56.602Z,94.02
2017-12-26T03:57:56.686Z,93.86
2017-12-26T03:58:56.790Z,94.15
2017-12-26T03:59:56.676Z,93.92
2017-12-26T04:00:56.621Z,94.02
2017-12-26T04:01:56.652Z,93.84
2017-12-26T04:02:56.711Z,93.71
2017-12-26T04:03:56.746Z,93.47
2017-12-26T04:04:56.678Z,93.87
2017-12-26T04:05:56.641Z,93.42
2017-12-26T04:06:56.634Z,93.78
2017-12-26T04:07:56.709Z,93.14
2017-12-26T04:08:56.661Z,93.33
2017-12-26T04:09:56.641Z,93.06
2017-12-26T04:10:56.815Z,93.22
2017-12-26T04:11:56.690Z,93.16
2017-12-26T04:12:56.662Z,93.17
2017-12-26T04:13:56.720Z,93.5
2017-12-26T04:14:56.712Z,93.36
2017-12-26T04:15:56.738Z,93.16
2017-12-26T04:16:56.691Z,93.3
2017-12-26T04:17:56.694Z,93.36
2017-12-26T04:18:56.719Z,92.98
2017-12-26T04:19:56.723Z,92.99
2017-12-26T04:20:56.661Z,93.23
2017-12-26T04:21:56.667Z,93.1
2017-12-26T04:22:56.718Z,93.3
2017-12-26T04:23:56.738Z,93.08
2017-12-26T04:24:56.688Z,93.17
2017-12-26T04:25:56.699Z,92.95
2017-12-26T04:26:56.714Z,92.95
2017-12-26T04:27:56.695Z,92.87
2017-12-26T04:28:56.716Z,93.26
2017-12-26T04:29:56.710Z,93.2
2017-12-26T04:30:56.739Z,92.82
2017-12-26T04:31:56.723Z,93.16
2017-12-26T04:32:56.713Z,93.07
2017-12-26T04:33:56.865Z,92.61
2017-12-26T04:34:56.638Z,92.7
2017-12-26T04:35:56.711Z,92.76
2017-12-26T04:36:56.690Z,92.76
2017-12-26T04:37:56.712Z,92.36
2017-12-26T04:38:56.714Z,92.8
2017-12-26T04:39:56.718Z,93.19
2017-12-26T04:40:56.661Z,93.36
2017-12-26T04:41:56.733Z,93.12
2017-12-26T04:42:56.694Z,93.52
2017-12-26T04:43:56.690Z,93.3
2017-12-26T04:44:56.732Z,93.12
2017-12-26T04:45:56.972Z,92.77
2017-12-26T04:46:56.737Z,93.14
2017-12-26T04:47:56.727Z,93.07
2017-12-26T04:48:56.758Z,93.24
2017-12-26T04:49:56.751Z,93.46
2017-12-26T04:50:56.743Z,92.6
2017-12-26T04:51:56.767Z,92.92
2017-12-26T04:52:56.714Z,92.99
2017-12-26T04:53:56.700Z,92.86
2017-12-26T04:54:56.744Z,93.01
2017-12-26T04:55:56.674Z,93.14
2017-12-26T04:56:56.821Z,92.67
2017-12-26T04:57:56.751Z,92.51
2017-12-26T04:58:56.742Z,93.24
2017-12-26T04:59:56.760Z,92.58
2017-12-26T05:00:56.675Z,92.79
2017-12-26T05:01:56.677Z,92.77
2017-12-26T05:02:56.767Z,92.58
2017-12-26T05:03:56.805Z,92.25
2017-12-26T05:04:56.788Z,92.63
2017-12-26T05:05:56.683Z,92.34
2017-12-26T05:06:56.702Z,92.06
2017-12-26T05:07:56.732Z,92.27
2017-12-26T05:08:56.726Z,92.33
2017-12-26T05:09:56.781Z,91.96
2017-12-26T05:10:56.723Z,91.9
2017-12-26T05:11:56.857Z,91.67
2017-12-26T05:12:56.738Z,91.69
2017-12-26T05:13:56.735Z,91.25
2017-12-26T05:14:56.698Z,91.61
2017-12-26T05:15:56.813Z,91.34
2017-12-26T05:16:56.754Z,91.31
2017-12-26T05:17:56.759Z,91.46
2017-12-26T05:18:56.742Z,91.2
2017-12-26T05:19:56.783Z,91.35
2017-12-26T05:20:56.744Z,91.22
2017-12-26T05:21:56.774Z,91.03
2017-12-26T05:22:56.797Z,91.12
2017-12-26T05:23:56.714Z,91.14
2017-12-26T05:24:56.794Z,90.91
2017-12-26T05:25:56.800Z,90.78
2017-12-26T05:26:56.713Z,91.01
2017-12-26T05:27:56.801Z,90.86
2017-12-26T05:28:56.708Z,90.72
2017-12-26T05:29:56.712Z,90.64
2017-12-26T05:30:56.718Z,90.94
2017-12-26T05:31:56.769Z,90.34
2017-12-26T05:32:56.764Z,90.65
2017-12-26T05:33:56.741Z,90.31
2017-12-26T05:34:56.747Z,90.47
2017-12-26T05:35:56.716Z,90.71
2017-12-26T05:36:56.784Z,90.53
2017-12-26T05:37:56.796Z,90.63
2017-12-26T05:38:56.738Z,90.59
2017-12-26T05:39:56.737Z,90.61
2017-12-26T05:40:56.822Z,90.86
2017-12-26T05:41:56.715Z,90.8
2017-12-26T05:42:56.734Z,90.57
2017-12-26T05:43:56.824Z,90.65
2017-12-26T05:44:56.738Z,90.68
2017-12-26T05:45:56.767Z,90.38
2017-12-26T05:46:56.767Z,90.16
2017-12-26T05:47:56.771Z,89.87
2017-12-26T05:48:56.771Z,90.32
2017-12-26T05:49:56.778Z,90.39
2017-12-26T05:50:56.885Z,90.33
2017-12-26T05:51:56.773Z,90.07
2017-12-26T05:52:56.794Z,90.01
2017-12-26T05:53:56.800Z,90.37
2017-12-26T05:54:56.794Z,90.29
2017-12-26T05:55:56.834Z,90.48
2017-12-26T05:56:56.762Z,90.08
2017-12-26T05:57:56.771Z,89.97
2017-12-26T05:58:56.790Z,90.03
2017-12-26T05:59:56.763Z,90.12
2017-12-26T06:00:56.765Z,89.87
2017-12-26T06:01:56.871Z,89.8
2017-12-26T06:02:56.776Z,89.69
2017-12-26T06:03:56.835Z,89.9
2017-12-26T06:04:56.741Z,89.76
2017-12-26T06:05:56.755Z,89.88
2017-12-26T06:06:56.751Z,89.83
2017-12-26T06:07:56.774Z,89.8
2017-12-26T06:08:56.803Z,89.47
2017-12-26T06:09:56.872Z,89.59
2017-12-26T06:10:56.789Z,89.7
2017-12-26T06:11:56.740Z,89.73
2017-12-26T06:12:56.840Z,89.53
2017-12-26T06:13:56.819Z,89.81
2017-12-26T06:14:56.837Z,89.65
2017-12-26T06:15:56.845Z,89.67
2017-12-26T06:16:56.814Z,89.72
2017-12-26T06:17:56.778Z,89.46
2017-12-26T06:18:56.932Z,89.55
2017-12-26T06:19:56.834Z,89.4
2017-12-26T06:20:56.779Z,89.46
2017-12-26T06:21:56.877Z,89.14
2017-12-26T06:22:56.868Z,89.32
2017-12-26T06:23:56.775Z,89.68
2017-12-26T06:24:56.791Z,89.57
2017-12-26T06:25:56.837Z,89.42
2017-12-26T06:26:56.815Z,89.53
2017-12-26T06:27:56.859Z,89.7
2017-12-26T06:28:56.768Z,89.49
2017-12-26T06:29:56.838Z,89.34
2017-12-26T06:30:56.856Z,89.53
2017-12-26T06:31:56.839Z,89.4
2017-12-26T06:32:56.771Z,89.48
2017-12-26T06:33:56.949Z,89.62
2017-12-26T06:34:56.772Z,89.8
2017-12-26T06:35:56.815Z,89.59
2017-12-26T06:36:56.820Z,89.69
2017-12-26T06:37:56.780Z,89.56
2017-12-26T06:38:56.842Z,89.52
2017-12-26T06:39:56.892Z,89.57
2017-12-26T06:40:56.799Z,89.56
2017-12-26T06:41:56.836Z,89.56
2017-12-26T06:42:56.869Z,89.25
2017-12-26T06:43:56.759Z,89.38
2017-12-26T06:44:56.851Z,89.48
2017-12-26T06:45:56.772Z,89.7
2017-12-26T06:46:56.752Z,89.79
2017-12-26T06:47:56.837Z,89.81
2017-12-26T06:48:56.871Z,89.73
2017-12-26T06:49:56.861Z,89.38
2017-12-26T06:50:56.849Z,89.54
2017-12-26T06:51:56.898Z,89.29
2017-12-26T06:52:56.817Z,89.31
2017-12-26T06:53:56.859Z,89.81
2017-12-26T06:54:56.945Z,89.68
2017-12-26T06:55:56.795Z,89.42
2017-12-26T06:56:56.803Z,89.69
2017-12-26T06:57:56.830Z,89.29
2017-12-26T06:58:56.793Z,89.28
2017-12-26T06:59:57.134Z,89.51
2017-12-26T07:00:56.816Z,89.44
2017-12-26T07:01:56.849Z,89.47
2017-12-26T07:02:56.798Z,89.36
2017-12-26T07:03:56.861Z,89.53
2017-12-26T07:04:56.873Z,89.05
2017-12-26T07:05:56.827Z,89.28
2017-12-26T07:06:56.807Z,89.36
2017-12-26T07:07:56.827Z,89.18
2017-12-26T07:08:56.886Z,89.2
2017-12-26T07:09:56.815Z,89.37
2017-12-26T07:10:56.864Z,88.85
2017-12-26T07:11:56.854Z,88.9
2017-12-26T07:12:56.798Z,88.65
2017-12-26T07:13:56.894Z,88.64
2017-12-26T07:14:56.818Z,88.57
2017-12-26T07:15:56.819Z,88.6
2017-12-26T07:16:56.841Z,88.74
2017-12-26T07:17:56.822Z,88.64
2017-12-26T07:18:56.826Z,88.57
2017-12-26T07:19:56.859Z,88.52
2017-12-26T07:20:56.894Z,88.32
2017-12-26T07:21:56.822Z,88.4
2017-12-26T07:22:57.254Z,88.34
2017-12-26T07:23:56.860Z,88.1
2017-12-26T07:24:56.884Z,88.19
2017-12-26T07:25:56.903Z,88.06
2017-12-26T07:26:56.818Z,88.34
2017-12-26T07:27:56.858Z,88.35
2017-12-26T07:28:56.910Z,88.49
2017-12-26T07:29:56.836Z,88.36
2017-12-26T07:30:56.851Z,88.43
2017-12-26T07:31:56.831Z,88.54
2017-12-26T07:32:56.806Z,88.69
2017-12-26T07:33:56.822Z,88.39
2017-12-26T07:34:56.900Z,88.83
2017-12-26T07:35:56.847Z,88.73
2017-12-26T07:36:56.896Z,89
2017-12-26T07:37:56.888Z,89.23
2017-12-26T07:38:56.838Z,88.95
2017-12-26T07:39:56.885Z,89.08
2017-12-26T07:40:56.869Z,88.85
2017-12-26T07:41:56.870Z,88.94
2017-12-26T07:42:56.880Z,88.96
2017-12-26T07:43:56.839Z,88.94
2017-12-26T07:44:56.831Z,88.95
2017-12-26T07:45:56.946Z,89.04
2017-12-26T07:46:56.895Z,89.04
2017-12-26T07:49:56.991Z,88.97
2017-12-26T07:50:56.888Z,88.97
2017-12-26T07:51:56.867Z,88.91
2017-12-26T07:52:57.346Z,88.83
2017-12-26T07:53:56.973Z,88.63
2017-12-26T07:54:56.921Z,88.22
2017-12-26T07:55:57.001Z,88.18
2017-12-26T07:56:56.992Z,88.39
2017-12-26T07:57:57.056Z,88.53
2017-12-26T07:58:56.856Z,88.26
2017-12-26T07:59:56.936Z,88.06
2017-12-26T08:00:56.881Z,88.35
2017-12-26T08:01:56.958Z,88.03
2017-12-26T08:02:56.936Z,88
2017-12-26T08:03:56.969Z,87.93
2017-12-26T08:04:56.945Z,87.95
2017-12-26T08:05:56.831Z,88.12
2017-12-26T08:06:56.915Z,87.7
2017-12-26T08:07:57.001Z,87.79
2017-12-26T08:08:56.989Z,87.61
2017-12-26T08:09:56.910Z,87.5
2017-12-26T08:10:57.015Z,87.52
2017-12-26T08:11:56.965Z,87.45
2017-12-26T08:12:56.953Z,87.54
2017-12-26T08:13:56.999Z,87.18
2017-12-26T08:14:56.909Z,87.3
2017-12-26T08:15:56.915Z,87.41
2017-12-26T08:16:57.113Z,87.44
2017-12-26T08:17:56.911Z,87.41
2017-12-26T08:18:56.935Z,87.07
2017-12-26T08:19:56.898Z,87.04
2017-12-26T08:20:56.998Z,87.03
2017-12-26T08:21:56.923Z,86.97
2017-12-26T08:22:56.914Z,86.9
2017-12-26T08:23:56.896Z,86.59
2017-12-26T08:24:56.974Z,86.4
2017-12-26T08:25:56.983Z,86.31
2017-12-26T08:26:56.917Z,86.12
2017-12-26T08:27:56.911Z,86.27
2017-12-26T08:28:56.975Z,86.2
2017-12-26T08:29:56.909Z,85.93
2017-12-26T08:30:56.964Z,85.66
2017-12-26T08:31:56.937Z,85.35
2017-12-26T08:32:56.970Z,85.18
2017-12-26T08:33:56.937Z,85.05
2017-12-26T08:34:56.970Z,84.92
2017-12-26T08:35:57.242Z,84.92
2017-12-26T08:36:56.912Z,84.47
2017-12-26T08:37:57.020Z,84.02
2017-12-26T08:38:56.951Z,84.23
2017-12-26T08:39:57.005Z,84.23
2017-12-26T08:40:57.010Z,83.7
2017-12-26T08:41:57.127Z,83.58
2017-12-26T08:42:56.952Z,83.85
2017-12-26T08:43:56.945Z,83.74
2017-12-26T08:44:56.901Z,83.52
2017-12-26T08:45:56.993Z,83.6
2017-12-26T08:46:56.980Z,83.19
2017-12-26T08:47:57.001Z,83.44
2017-12-26T08:48:56.980Z,83.23
2017-12-26T08:49:56.948Z,83.11
2017-12-26T08:50:56.945Z,83.21
2017-12-26T08:51:56.940Z,82.89
2017-12-26T08:52:56.986Z,83.34
2017-12-26T08:53:57.016Z,83.14
2017-12-26T08:54:56.985Z,82.72
2017-12-26T08:55:57.086Z,83.09
2017-12-26T08:56:56.942Z,83.23
2017-12-26T08:57:57.033Z,82.93
2017-12-26T08:58:57.018Z,83.37
2017-12-26T08:59:56.990Z,83.2
2017-12-26T09:00:56.979Z,83.09
2017-12-26T09:01:56.972Z,82.98
2017-12-26T09:02:56.889Z,83.12
2017-12-26T09:03:57.021Z,83.26
2017-12-26T09:04:56.969Z,83.06
2017-12-26T09:05:56.972Z,83.13
2017-12-26T09:06:56.962Z,82.99
2017-12-26T09:07:56.985Z,83.1
2017-12-26T09:08:56.995Z,83.29
2017-12-26T09:09:57.001Z,83.31
2017-12-26T09:10:56.985Z,82.88
2017-12-26T09:11:56.999Z,82.87
2017-12-26T09:12:57.017Z,83.04
2017-12-26T09:13:57.093Z,82.96
2017-12-26T09:14:56.993Z,82.99
2017-12-26T09:15:57.011Z,82.78
2017-12-26T09:16:57.010Z,82.82
2017-12-26T09:17:57.030Z,82.73
2017-12-26T09:18:57.077Z,83
2017-12-26T09:19:57.018Z,82.96
2017-12-26T09:20:57.129Z,82.61
2017-12-26T09:21:56.971Z,82.89
2017-12-26T09:22:56.990Z,82.85
2017-12-26T09:23:57.081Z,82.52
2017-12-26T09:24:57.100Z,82.48
2017-12-26T09:28:05.594Z,82.42
2017-12-26T09:28:57.006Z,82.44
2017-12-26T09:29:57.051Z,82.16
2017-12-26T09:30:56.943Z,82.27
2017-12-26T09:31:56.997Z,82.46
2017-12-26T09:32:57.040Z,82.54
2017-12-26T09:33:57.057Z,82.34
2017-12-26T09:34:57.011Z,82.39
2017-12-26T09:35:57.047Z,82.24
2017-12-26T09:36:56.992Z,81.96
2017-12-26T09:37:57.036Z,81.87
2017-12-26T09:38:56.982Z,82.04
2017-12-26T09:39:57.053Z,82.06
2017-12-26T09:40:57.018Z,81.96
2017-12-26T09:44:03.582Z,82.18
2017-12-26T09:44:57.161Z,82.36
2017-12-26T09:45:57.109Z,82.21
2017-12-26T09:46:57.006Z,82.28
2017-12-26T09:47:57.154Z,82.38
2017-12-26T09:48:57.160Z,82.34
2017-12-26T09:49:57.063Z,82.52
2017-12-26T09:50:57.332Z,82.67
2017-12-26T09:51:57.184Z,82.89
2017-12-26T09:52:57.162Z,82.79
2017-12-26T09:53:57.090Z,83.22
2017-12-26T09:54:57.086Z,82.98
2017-12-26T09:55:57.057Z,82.97
2017-12-26T09:56:57.100Z,82.85
2017-12-26T09:57:57.135Z,82.74
2017-12-26T09:58:57.126Z,82.71
2017-12-26T09:59:57.196Z,82.78
2017-12-26T10:00:57.000Z,82.67
2017-12-26T10:01:57.142Z,82.93
2017-12-26T10:02:57.172Z,82.89
2017-12-26T10:03:57.132Z,82.82
2017-12-26T10:04:57.079Z,83.04
2017-12-26T10:05:57.144Z,83.22
2017-12-26T10:06:57.030Z,83.14
2017-12-26T10:07:57.097Z,83.58
2017-12-26T10:08:57.063Z,83.83
2017-12-26T10:09:57.099Z,83.62
2017-12-26T10:10:57.068Z,83.41
2017-12-26T10:11:57.063Z,83.66
2017-12-26T10:12:57.157Z,83.8
2017-12-26T10:13:57.045Z,84.19
2017-12-26T10:14:57.112Z,83.93
2017-12-26T10:15:57.010Z,84.78
2017-12-26T10:16:57.080Z,85.04
2017-12-26T10:17:57.184Z,84.44
2017-12-26T10:18:57.033Z,85.29
2017-12-26T10:19:57.087Z,85.14
2017-12-26T10:20:57.080Z,84.97
2017-12-26T10:21:57.236Z,85.25
2017-12-26T10:22:57.164Z,84.95
2017-12-26T10:23:57.162Z,85.08
2017-12-26T10:24:57.092Z,84.91
2017-12-26T10:25:57.140Z,85.51
2017-12-26T10:26:57.121Z,85.54
2017-12-26T10:27:57.158Z,85.94
2017-12-26T10:28:57.103Z,85.26
2017-12-26T10:29:57.294Z,85.57
2017-12-26T10:30:57.264Z,85.73
2017-12-26T10:31:57.302Z,85.61
2017-12-26T10:32:57.268Z,85.4
2017-12-26T10:33:57.067Z,85.73
2017-12-26T10:34:57.099Z,86.09
2017-12-26T10:35:57.153Z,85.52
2017-12-26T10:36:57.083Z,85.54
2017-12-26T10:37:57.177Z,85.64
2017-12-26T10:38:57.174Z,85.68
2017-12-26T10:39:57.107Z,85.83
2017-12-26T10:40:57.271Z,85.8
2017-12-26T10:41:57.217Z,86.01
2017-12-26T10:42:57.283Z,86.64
2017-12-26T10:43:57.195Z,85.82
2017-12-26T10:44:57.188Z,85.54
2017-12-26T10:45:57.160Z,86.15
2017-12-26T10:46:57.179Z,86.4
2017-12-26T10:47:58.149Z,86.09
2017-12-26T10:48:57.178Z,89.26
2017-12-26T10:49:57.272Z,86.36
2017-12-26T10:50:57.335Z,86.19
2017-12-26T10:51:57.319Z,85.6
2017-12-26T10:52:57.330Z,86.15
2017-12-26T10:53:57.126Z,85.77
2017-12-26T10:54:57.291Z,85.95
2017-12-26T10:55:57.185Z,85.93
2017-12-26T10:56:57.207Z,85.69
2017-12-26T10:57:57.155Z,85.42
2017-12-26T10:58:57.352Z,86.25
2017-12-26T10:59:57.503Z,85.87
2017-12-26T11:00:57.611Z,85.5
2017-12-26T11:01:57.228Z,85.21
2017-12-26T11:02:57.228Z,85.92
2017-12-26T11:03:57.134Z,85.82
2017-12-26T11:04:57.170Z,85.47
2017-12-26T11:05:57.166Z,85.53
2017-12-26T11:06:57.143Z,85.35
2017-12-26T11:07:57.196Z,85.13
2017-12-26T11:08:57.188Z,84.85
2017-12-26T11:09:57.595Z,84.29
2017-12-26T11:10:57.373Z,84.35
2017-12-26T11:11:57.966Z,84.12
2017-12-26T11:12:57.148Z,84.17
2017-12-26T11:13:57.169Z,83.53
2017-12-26T11:14:57.504Z,82.73
2017-12-26T11:15:57.203Z,82.83
2017-12-26T11:16:57.203Z,82.74
2017-12-26T11:17:57.182Z,82.8
2017-12-26T11:18:57.227Z,83.08
2017-12-26T11:19:57.325Z,82.83
2017-12-26T11:20:57.188Z,82.58
2017-12-26T11:21:57.209Z,81.72
2017-12-26T11:22:57.226Z,82.37
2017-12-26T11:23:57.179Z,82.4
2017-12-26T11:24:57.432Z,82.58
2017-12-26T11:25:57.337Z,82.23
2017-12-26T11:26:57.631Z,82.11
2017-12-26T11:27:57.637Z,81.78
2017-12-26T11:28:57.111Z,82.36
2017-12-26T11:29:57.673Z,82.76
2017-12-26T11:30:57.282Z,82.53
2017-12-26T11:31:57.315Z,82.02
2017-12-26T11:32:57.284Z,82.15
2017-12-26T11:33:57.191Z,82.4
2017-12-26T11:34:57.179Z,82.66
2017-12-26T11:35:57.216Z,82.8
2017-12-26T11:36:57.151Z,82.93
2017-12-26T11:38:09.254Z,82.1
2017-12-26T11:38:57.144Z,82.23
2017-12-26T11:39:57.260Z,82.68
2017-12-26T11:40:57.304Z,82
2017-12-26T11:41:57.306Z,82.27
2017-12-26T11:42:57.218Z,81.87
2017-12-26T11:43:57.241Z,82.19
2017-12-26T11:44:57.274Z,82.03
2017-12-26T11:45:57.229Z,81.8
2017-12-26T11:46:57.249Z,81.92
2017-12-26T11:47:57.195Z,82.07
2017-12-26T11:48:57.172Z,82.26
2017-12-26T11:49:57.163Z,81.95
2017-12-26T11:50:57.288Z,81.97
2017-12-26T11:51:57.179Z,81.77
2017-12-26T11:52:57.188Z,81.76
2017-12-26T11:53:57.208Z,81.82
2017-12-26T11:54:57.200Z,81.9
2017-12-26T11:55:57.881Z,81.97
2017-12-26T11:56:57.402Z,82.26
2017-12-26T11:57:57.192Z,82.25
2017-12-26T11:58:58.038Z,82.35
2017-12-26T11:59:57.208Z,82.63
2017-12-26T12:00:57.217Z,82.37
2017-12-26T12:01:57.161Z,82.42
2017-12-26T12:02:57.173Z,82.33
2017-12-26T12:03:58.215Z,82.46
2017-12-26T12:04:57.261Z,82.09
2017-12-26T12:05:57.271Z,81.23
2017-12-26T12:06:57.211Z,81.66
2017-12-26T12:07:57.452Z,81.71
2017-12-26T12:08:57.921Z,81.88
2017-12-26T12:09:57.241Z,81.8
2017-12-26T12:10:57.696Z,81.66
2017-12-26T12:11:57.205Z,81.85
2017-12-26T12:13:03.024Z,81.72
2017-12-26T12:13:57.230Z,81.71
2017-12-26T12:14:57.323Z,81.17
2017-12-26T12:15:57.529Z,81.34
2017-12-26T12:16:57.221Z,81.6
2017-12-26T12:17:57.450Z,81.46
2017-12-26T12:18:57.268Z,81.28
2017-12-26T12:19:57.225Z,81.39
2017-12-26T12:20:58.125Z,81.57
2017-12-26T12:21:57.175Z,81.52
2017-12-26T12:22:57.217Z,81.63
2017-12-26T12:23:57.257Z,82
2017-12-26T12:24:57.168Z,82.1
2017-12-26T12:25:57.379Z,81.96
2017-12-26T12:27:00.615Z,82.06
2017-12-26T12:29:01.227Z,81.89
2017-12-26T12:30:00.562Z,81.79
2017-12-26T12:30:57.258Z,81.87
2017-12-26T12:31:57.249Z,81.97
2017-12-26T12:33:01.996Z,82.1
2017-12-26T12:33:59.810Z,81.89
2017-12-26T12:34:59.498Z,82.04
2017-12-26T12:35:57.949Z,81.78
2017-12-26T12:37:06.281Z,81.98
2017-12-26T12:39:02.859Z,81.65
2017-12-26T12:39:59.457Z,81.71
2017-12-26T12:41:07.946Z,81.61
2017-12-26T12:43:59.005Z,81.34
2017-12-26T12:45:02.385Z,81.57
2017-12-26T12:46:05.718Z,81.53
2017-12-26T12:47:01.144Z,81.42
2017-12-26T12:47:57.252Z,81.58
2017-12-26T12:48:57.278Z,81.36
2017-12-26T12:49:57.195Z,81.3
2017-12-26T12:50:57.349Z,80.57
2017-12-26T12:51:57.324Z,80.98
2017-12-26T12:52:57.427Z,80.41
2017-12-26T12:53:57.560Z,80.49
2017-12-26T12:54:57.203Z,80.15
2017-12-26T12:55:57.351Z,80.19
2017-12-26T12:56:57.351Z,80.14
2017-12-26T12:57:57.222Z,79.93
2017-12-26T12:58:57.242Z,80.06
2017-12-26T12:59:57.386Z,79.61
2017-12-26T13:00:57.303Z,79.04
2017-12-26T13:01:57.223Z,78.36
2017-12-26T13:02:57.270Z,79
2017-12-26T13:03:57.297Z,79.05
2017-12-26T13:04:57.320Z,78.79
2017-12-26T13:05:57.267Z,78.94
2017-12-26T13:06:57.283Z,78.68
2017-12-26T13:07:57.269Z,78.01